sensor_id;sensor_type;location;lat;lon;timestamp;temperature;humidity
51811;DHT22;52468;40.116;18.296;2023-09-07T00:02:14;25.60;60.30
51811;DHT22;52468;40.116;18.296;2023-09-07T00:04:42;25.50;60.70
51811;DHT22;52468;40.116;18.296;2023-09-07T00:07:10;25.50;61.00
51811;DHT22;52468;40.116;18.296;2023-09-07T00:09:38;25.50;61.30
51811;DHT22;52468;40.116;18.296;2023-09-07T00:12:06;25.40;61.40
51811;DHT22;52468;40.116;18.296;2023-09-07T00:14:34;25.40;61.50
51811;DHT22;52468;40.116;18.296;2023-09-07T00:17:02;25.40;61.50
51811;DHT22;52468;40.116;18.296;2023-09-07T00:19:32;25.40;61.50
51811;DHT22;52468;40.116;18.296;2023-09-07T00:22:01;25.40;61.50
51811;DHT22;52468;40.116;18.296;2023-09-07T00:24:30;25.40;61.70
51811;DHT22;52468;40.116;18.296;2023-09-07T00:26:58;25.50;61.70
51811;DHT22;52468;40.116;18.296;2023-09-07T00:29:26;25.40;61.80
51811;DHT22;52468;40.116;18.296;2023-09-07T00:31:54;25.40;61.90
51811;DHT22;52468;40.116;18.296;2023-09-07T00:34:22;25.40;61.80
51811;DHT22;52468;40.116;18.296;2023-09-07T00:36:50;25.40;61.90
51811;DHT22;52468;40.116;18.296;2023-09-07T00:39:18;25.30;62.20
51811;DHT22;52468;40.116;18.296;2023-09-07T00:41:46;25.30;62.30
51811;DHT22;52468;40.116;18.296;2023-09-07T00:44:14;25.20;62.70
51811;DHT22;52468;40.116;18.296;2023-09-07T00:46:42;25.10;62.80
51811;DHT22;52468;40.116;18.296;2023-09-07T00:49:13;25.20;62.80
51811;DHT22;52468;40.116;18.296;2023-09-07T00:51:41;25.10;62.90
51811;DHT22;52468;40.116;18.296;2023-09-07T00:54:09;25.10;63.00
51811;DHT22;52468;40.116;18.296;2023-09-07T00:56:37;25.10;63.30
51811;DHT22;52468;40.116;18.296;2023-09-07T00:59:07;25.20;63.20
51811;DHT22;52468;40.116;18.296;2023-09-07T01:01:35;25.20;63.30
51811;DHT22;52468;40.116;18.296;2023-09-07T01:04:03;25.10;63.60
51811;DHT22;52468;40.116;18.296;2023-09-07T01:06:46;25.10;63.80
51811;DHT22;52468;40.116;18.296;2023-09-07T01:09:23;25.20;63.60
51811;DHT22;52468;40.116;18.296;2023-09-07T01:11:52;25.10;63.80
51811;DHT22;52468;40.116;18.296;2023-09-07T01:14:20;25.20;63.50
51811;DHT22;52468;40.116;18.296;2023-09-07T01:16:50;25.20;63.50
51811;DHT22;52468;40.116;18.296;2023-09-07T01:19:18;25.10;63.50
51811;DHT22;52468;40.116;18.296;2023-09-07T01:21:47;25.20;63.60
51811;DHT22;52468;40.116;18.296;2023-09-07T01:24:18;25.20;63.50
51811;DHT22;52468;40.116;18.296;2023-09-07T01:26:46;25.20;63.50
51811;DHT22;52468;40.116;18.296;2023-09-07T01:29:17;25.20;63.40
51811;DHT22;52468;40.116;18.296;2023-09-07T01:31:45;25.10;63.20
51811;DHT22;52468;40.116;18.296;2023-09-07T01:34:13;25.10;63.30
51811;DHT22;52468;40.116;18.296;2023-09-07T01:36:41;25.20;63.00
51811;DHT22;52468;40.116;18.296;2023-09-07T01:39:09;25.20;62.90
51811;DHT22;52468;40.116;18.296;2023-09-07T01:41:37;25.20;62.80
51811;DHT22;52468;40.116;18.296;2023-09-07T01:44:05;25.20;62.60
51811;DHT22;52468;40.116;18.296;2023-09-07T01:46:33;25.20;62.60
51811;DHT22;52468;40.116;18.296;2023-09-07T01:49:01;25.20;62.40
51811;DHT22;52468;40.116;18.296;2023-09-07T01:51:29;25.20;62.30
51811;DHT22;52468;40.116;18.296;2023-09-07T01:53:57;25.20;62.20
51811;DHT22;52468;40.116;18.296;2023-09-07T01:56:25;25.20;62.10
51811;DHT22;52468;40.116;18.296;2023-09-07T01:58:53;25.20;61.70
51811;DHT22;52468;40.116;18.296;2023-09-07T02:01:27;25.20;61.60
51811;DHT22;52468;40.116;18.296;2023-09-07T02:03:57;25.30;61.50
51811;DHT22;52468;40.116;18.296;2023-09-07T02:06:25;25.30;61.10
51811;DHT22;52468;40.116;18.296;2023-09-07T02:08:54;25.30;61.10
51811;DHT22;52468;40.116;18.296;2023-09-07T02:11:23;25.30;61.00
51811;DHT22;52468;40.116;18.296;2023-09-07T02:13:51;25.20;61.20
51811;DHT22;52468;40.116;18.296;2023-09-07T02:16:19;25.10;61.40
51811;DHT22;52468;40.116;18.296;2023-09-07T02:18:49;25.10;61.40
51811;DHT22;52468;40.116;18.296;2023-09-07T02:21:18;25.00;61.90
51811;DHT22;52468;40.116;18.296;2023-09-07T02:23:46;25.00;61.90
51811;DHT22;52468;40.116;18.296;2023-09-07T02:26:14;24.90;62.40
51811;DHT22;52468;40.116;18.296;2023-09-07T02:28:42;24.90;62.60
51811;DHT22;52468;40.116;18.296;2023-09-07T02:31:11;24.90;62.90
51811;DHT22;52468;40.116;18.296;2023-09-07T02:33:39;24.80;63.30
51811;DHT22;52468;40.116;18.296;2023-09-07T02:36:07;24.80;63.70
51811;DHT22;52468;40.116;18.296;2023-09-07T02:38:35;24.80;63.90
51811;DHT22;52468;40.116;18.296;2023-09-07T02:41:03;24.80;64.40
51811;DHT22;52468;40.116;18.296;2023-09-07T02:43:31;24.80;64.40
51811;DHT22;52468;40.116;18.296;2023-09-07T02:46:00;24.80;64.60
51811;DHT22;52468;40.116;18.296;2023-09-07T02:48:28;24.80;64.70
51811;DHT22;52468;40.116;18.296;2023-09-07T02:50:56;24.70;65.00
51811;DHT22;52468;40.116;18.296;2023-09-07T02:53:26;24.60;65.40
51811;DHT22;52468;40.116;18.296;2023-09-07T02:55:54;24.70;65.50
51811;DHT22;52468;40.116;18.296;2023-09-07T02:58:23;24.60;65.70
51811;DHT22;52468;40.116;18.296;2023-09-07T03:00:52;24.70;65.60
51811;DHT22;52468;40.116;18.296;2023-09-07T03:03:23;24.70;65.60
51811;DHT22;52468;40.116;18.296;2023-09-07T03:05:52;24.70;65.60
51811;DHT22;52468;40.116;18.296;2023-09-07T03:08:20;24.70;65.60
51811;DHT22;52468;40.116;18.296;2023-09-07T03:10:48;24.60;65.80
51811;DHT22;52468;40.116;18.296;2023-09-07T03:13:16;24.60;65.80
51811;DHT22;52468;40.116;18.296;2023-09-07T03:15:44;24.60;65.90
51811;DHT22;52468;40.116;18.296;2023-09-07T03:18:13;24.50;66.00
51811;DHT22;52468;40.116;18.296;2023-09-07T03:20:42;24.50;66.20
51811;DHT22;52468;40.116;18.296;2023-09-07T03:23:10;24.50;66.10
51811;DHT22;52468;40.116;18.296;2023-09-07T03:25:38;24.50;66.10
51811;DHT22;52468;40.116;18.296;2023-09-07T03:28:07;24.50;65.80
51811;DHT22;52468;40.116;18.296;2023-09-07T03:30:36;24.50;65.60
51811;DHT22;52468;40.116;18.296;2023-09-07T03:33:05;24.50;65.50
51811;DHT22;52468;40.116;18.296;2023-09-07T03:35:33;24.50;65.10
51811;DHT22;52468;40.116;18.296;2023-09-07T03:38:02;24.50;64.90
51811;DHT22;52468;40.116;18.296;2023-09-07T03:40:30;24.50;64.50
51811;DHT22;52468;40.116;18.296;2023-09-07T03:42:58;24.60;63.60
51811;DHT22;52468;40.116;18.296;2023-09-07T03:45:27;24.70;63.10
51811;DHT22;52468;40.116;18.296;2023-09-07T03:47:55;24.60;62.60
51811;DHT22;52468;40.116;18.296;2023-09-07T03:50:23;24.70;62.20
51811;DHT22;52468;40.116;18.296;2023-09-07T03:52:51;24.70;61.90
51811;DHT22;52468;40.116;18.296;2023-09-07T03:55:19;24.70;62.00
51811;DHT22;52468;40.116;18.296;2023-09-07T03:57:49;24.70;61.80
51811;DHT22;52468;40.116;18.296;2023-09-07T04:00:17;24.60;61.80
51811;DHT22;52468;40.116;18.296;2023-09-07T04:02:48;24.70;61.50
51811;DHT22;52468;40.116;18.296;2023-09-07T04:05:16;24.80;61.30
51811;DHT22;52468;40.116;18.296;2023-09-07T04:07:44;24.70;61.30
51811;DHT22;52468;40.116;18.296;2023-09-07T04:10:12;24.80;61.30
51811;DHT22;52468;40.116;18.296;2023-09-07T04:12:40;24.80;61.20
51811;DHT22;52468;40.116;18.296;2023-09-07T04:15:09;24.80;61.30
51811;DHT22;52468;40.116;18.296;2023-09-07T04:17:37;24.80;61.50
51811;DHT22;52468;40.116;18.296;2023-09-07T04:20:08;24.90;61.50
51811;DHT22;52468;40.116;18.296;2023-09-07T04:22:39;24.90;61.50
51811;DHT22;52468;40.116;18.296;2023-09-07T04:25:09;24.90;61.70
51811;DHT22;52468;40.116;18.296;2023-09-07T04:27:37;24.90;61.90
51811;DHT22;52468;40.116;18.296;2023-09-07T04:30:06;25.00;61.80
51811;DHT22;52468;40.116;18.296;2023-09-07T04:32:35;25.00;62.00
51811;DHT22;52468;40.116;18.296;2023-09-07T04:35:03;25.00;62.20
51811;DHT22;52468;40.116;18.296;2023-09-07T04:37:31;24.90;62.40
51811;DHT22;52468;40.116;18.296;2023-09-07T04:39:59;25.00;62.50
51811;DHT22;52468;40.116;18.296;2023-09-07T04:42:27;25.00;62.50
51811;DHT22;52468;40.116;18.296;2023-09-07T04:44:55;25.00;62.70
51811;DHT22;52468;40.116;18.296;2023-09-07T04:47:23;25.10;62.60
51811;DHT22;52468;40.116;18.296;2023-09-07T04:49:51;25.00;62.80
51811;DHT22;52468;40.116;18.296;2023-09-07T04:52:21;25.10;62.90
51811;DHT22;52468;40.116;18.296;2023-09-07T04:54:49;25.20;62.80
51811;DHT22;52468;40.116;18.296;2023-09-07T04:57:18;25.20;63.10
51811;DHT22;52468;40.116;18.296;2023-09-07T04:59:47;25.10;63.60
51811;DHT22;52468;40.116;18.296;2023-09-07T05:02:15;25.10;63.70
51811;DHT22;52468;40.116;18.296;2023-09-07T05:04:45;25.10;63.80
51811;DHT22;52468;40.116;18.296;2023-09-07T05:07:12;25.10;63.90
51811;DHT22;52468;40.116;18.296;2023-09-07T05:09:41;25.20;64.20
51811;DHT22;52468;40.116;18.296;2023-09-07T05:12:08;25.20;64.30
51811;DHT22;52468;40.116;18.296;2023-09-07T05:14:37;25.40;64.00
51811;DHT22;52468;40.116;18.296;2023-09-07T05:17:05;25.50;63.80
51811;DHT22;52468;40.116;18.296;2023-09-07T05:19:33;25.60;64.00
51811;DHT22;52468;40.116;18.296;2023-09-07T05:22:02;25.60;64.20
51811;DHT22;52468;40.116;18.296;2023-09-07T05:24:30;25.60;64.70
51811;DHT22;52468;40.116;18.296;2023-09-07T05:26:58;25.80;65.00
51811;DHT22;52468;40.116;18.296;2023-09-07T05:29:25;25.80;65.50
51811;DHT22;52468;40.116;18.296;2023-09-07T05:31:53;26.00;65.40
51811;DHT22;52468;40.116;18.296;2023-09-07T05:34:21;26.20;65.10
51811;DHT22;52468;40.116;18.296;2023-09-07T05:36:49;26.40;64.80
51811;DHT22;52468;40.116;18.296;2023-09-07T05:39:17;26.60;64.40
51811;DHT22;52468;40.116;18.296;2023-09-07T05:41:49;26.60;63.60
51811;DHT22;52468;40.116;18.296;2023-09-07T05:44:17;26.60;63.40
51811;DHT22;52468;40.116;18.296;2023-09-07T05:46:45;26.70;62.80
51811;DHT22;52468;40.116;18.296;2023-09-07T05:49:13;26.90;62.50
51811;DHT22;52468;40.116;18.296;2023-09-07T05:51:41;27.10;60.30
51811;DHT22;52468;40.116;18.296;2023-09-07T05:54:09;27.30;59.30
51811;DHT22;52468;40.116;18.296;2023-09-07T05:56:37;27.50;58.70
51811;DHT22;52468;40.116;18.296;2023-09-07T05:59:05;27.80;57.60
51811;DHT22;52468;40.116;18.296;2023-09-07T06:01:33;28.00;55.80
51811;DHT22;52468;40.116;18.296;2023-09-07T06:04:02;28.10;55.30
51811;DHT22;52468;40.116;18.296;2023-09-07T06:06:30;28.30;54.00
51811;DHT22;52468;40.116;18.296;2023-09-07T06:08:59;28.50;52.60
51811;DHT22;52468;40.116;18.296;2023-09-07T06:11:27;28.50;50.00
51811;DHT22;52468;40.116;18.296;2023-09-07T06:13:55;28.50;49.20
51811;DHT22;52468;40.116;18.296;2023-09-07T06:16:24;28.50;49.00
51811;DHT22;52468;40.116;18.296;2023-09-07T06:18:52;28.40;49.10
51811;DHT22;52468;40.116;18.296;2023-09-07T06:21:20;28.50;49.00
51811;DHT22;52468;40.116;18.296;2023-09-07T06:23:48;28.80;47.70
51811;DHT22;52468;40.116;18.296;2023-09-07T06:26:16;28.90;47.40
51811;DHT22;52468;40.116;18.296;2023-09-07T06:28:46;29.10;47.00
51811;DHT22;52468;40.116;18.296;2023-09-07T06:31:14;29.10;45.90
51811;DHT22;52468;40.116;18.296;2023-09-07T06:33:43;29.20;45.90
51811;DHT22;52468;40.116;18.296;2023-09-07T06:36:11;29.40;45.90
51811;DHT22;52468;40.116;18.296;2023-09-07T06:38:40;29.40;46.00
51811;DHT22;52468;40.116;18.296;2023-09-07T06:41:08;29.30;46.50
51811;DHT22;52468;40.116;18.296;2023-09-07T06:43:39;29.30;47.00
51811;DHT22;52468;40.116;18.296;2023-09-07T06:46:09;29.30;47.20
51811;DHT22;52468;40.116;18.296;2023-09-07T06:48:37;29.10;47.90
51811;DHT22;52468;40.116;18.296;2023-09-07T06:51:06;29.20;48.10
51811;DHT22;52468;40.116;18.296;2023-09-07T06:53:36;29.30;48.60
51811;DHT22;52468;40.116;18.296;2023-09-07T06:56:20;29.50;48.80
51811;DHT22;52468;40.116;18.296;2023-09-07T06:58:49;29.30;49.30
51811;DHT22;52468;40.116;18.296;2023-09-07T07:01:17;29.40;49.10
51811;DHT22;52468;40.116;18.296;2023-09-07T07:03:44;29.40;48.90
51811;DHT22;52468;40.116;18.296;2023-09-07T07:06:13;29.60;48.50
51811;DHT22;52468;40.116;18.296;2023-09-07T07:08:41;29.70;47.60
51811;DHT22;52468;40.116;18.296;2023-09-07T07:11:09;29.90;46.90
51811;DHT22;52468;40.116;18.296;2023-09-07T07:13:37;30.00;46.10
51811;DHT22;52468;40.116;18.296;2023-09-07T07:16:06;30.10;45.80
51811;DHT22;52468;40.116;18.296;2023-09-07T07:18:34;30.00;44.60
51811;DHT22;52468;40.116;18.296;2023-09-07T07:21:02;29.80;45.40
51811;DHT22;52468;40.116;18.296;2023-09-07T07:23:30;29.40;46.10
51811;DHT22;52468;40.116;18.296;2023-09-07T07:25:58;29.50;46.20
51811;DHT22;52468;40.116;18.296;2023-09-07T07:28:26;29.90;45.80
51811;DHT22;52468;40.116;18.296;2023-09-07T07:30:57;30.50;44.90
51811;DHT22;52468;40.116;18.296;2023-09-07T07:33:25;30.50;44.90
51811;DHT22;52468;40.116;18.296;2023-09-07T07:35:53;30.80;44.10
51811;DHT22;52468;40.116;18.296;2023-09-07T07:38:22;30.90;43.40
51811;DHT22;52468;40.116;18.296;2023-09-07T07:40:50;31.10;42.90
51811;DHT22;52468;40.116;18.296;2023-09-07T07:43:20;30.90;42.70
51811;DHT22;52468;40.116;18.296;2023-09-07T07:45:48;30.70;43.10
51811;DHT22;52468;40.116;18.296;2023-09-07T07:48:16;30.70;43.50
51811;DHT22;52468;40.116;18.296;2023-09-07T07:50:45;30.60;43.90
51811;DHT22;52468;40.116;18.296;2023-09-07T07:53:14;30.70;43.90
51811;DHT22;52468;40.116;18.296;2023-09-07T07:55:44;30.70;43.70
51811;DHT22;52468;40.116;18.296;2023-09-07T07:58:16;30.70;44.00
51811;DHT22;52468;40.116;18.296;2023-09-07T08:00:44;30.90;43.80
51811;DHT22;52468;40.116;18.296;2023-09-07T08:03:19;31.10;43.30
51811;DHT22;52468;40.116;18.296;2023-09-07T08:05:49;31.10;42.60
51811;DHT22;52468;40.116;18.296;2023-09-07T08:08:17;31.10;42.50
51811;DHT22;52468;40.116;18.296;2023-09-07T08:10:45;31.20;40.80
51811;DHT22;52468;40.116;18.296;2023-09-07T08:13:14;31.30;41.40
51811;DHT22;52468;40.116;18.296;2023-09-07T08:15:42;31.60;41.50
51811;DHT22;52468;40.116;18.296;2023-09-07T08:18:11;31.80;41.60
51811;DHT22;52468;40.116;18.296;2023-09-07T08:20:40;31.80;41.40
51811;DHT22;52468;40.116;18.296;2023-09-07T08:23:09;32.20;40.10
51811;DHT22;52468;40.116;18.296;2023-09-07T08:25:39;32.40;38.70
51811;DHT22;52468;40.116;18.296;2023-09-07T08:28:13;32.50;40.70
51811;DHT22;52468;40.116;18.296;2023-09-07T08:30:41;32.40;41.60
51811;DHT22;52468;40.116;18.296;2023-09-07T08:33:08;32.30;42.20
51811;DHT22;52468;40.116;18.296;2023-09-07T08:35:36;32.80;41.20
51811;DHT22;52468;40.116;18.296;2023-09-07T08:38:11;33.00;39.60
51811;DHT22;52468;40.116;18.296;2023-09-07T08:40:39;33.30;38.50
51811;DHT22;52468;40.116;18.296;2023-09-07T08:43:09;33.30;38.10
51811;DHT22;52468;40.116;18.296;2023-09-07T08:45:44;33.10;38.20
51811;DHT22;52468;40.116;18.296;2023-09-07T08:48:16;32.60;38.90
51811;DHT22;52468;40.116;18.296;2023-09-07T08:50:45;32.50;39.00
51811;DHT22;52468;40.116;18.296;2023-09-07T08:53:18;32.50;39.50
51811;DHT22;52468;40.116;18.296;2023-09-07T08:55:49;32.80;39.50
51811;DHT22;52468;40.116;18.296;2023-09-07T08:58:17;33.20;39.30
51811;DHT22;52468;40.116;18.296;2023-09-07T09:00:45;33.70;38.20
51811;DHT22;52468;40.116;18.296;2023-09-07T09:03:13;33.70;38.10
51811;DHT22;52468;40.116;18.296;2023-09-07T09:05:43;33.70;37.40
51811;DHT22;52468;40.116;18.296;2023-09-07T09:08:12;34.00;36.40
51811;DHT22;52468;40.116;18.296;2023-09-07T09:10:40;34.80;35.40
51811;DHT22;52468;40.116;18.296;2023-09-07T09:13:08;35.60;32.30
51811;DHT22;52468;40.116;18.296;2023-09-07T09:15:36;36.20;30.70
51811;DHT22;52468;40.116;18.296;2023-09-07T09:18:11;36.30;29.80
51811;DHT22;52468;40.116;18.296;2023-09-07T09:20:40;36.30;29.00
51811;DHT22;52468;40.116;18.296;2023-09-07T09:23:08;36.00;29.40
51811;DHT22;52468;40.116;18.296;2023-09-07T09:25:36;36.10;29.50
51811;DHT22;52468;40.116;18.296;2023-09-07T09:28:05;36.40;28.90
51811;DHT22;52468;40.116;18.296;2023-09-07T09:30:33;36.40;28.70
51811;DHT22;52468;40.116;18.296;2023-09-07T09:33:01;36.20;28.90
51811;DHT22;52468;40.116;18.296;2023-09-07T09:35:30;36.00;29.00
51811;DHT22;52468;40.116;18.296;2023-09-07T09:38:01;35.70;29.60
51811;DHT22;52468;40.116;18.296;2023-09-07T09:40:33;36.00;29.00
51811;DHT22;52468;40.116;18.296;2023-09-07T09:43:05;36.00;29.10
51811;DHT22;52468;40.116;18.296;2023-09-07T09:45:34;35.80;29.40
51811;DHT22;52468;40.116;18.296;2023-09-07T09:48:03;36.10;29.00
51811;DHT22;52468;40.116;18.296;2023-09-07T09:50:33;36.30;28.50
51811;DHT22;52468;40.116;18.296;2023-09-07T09:53:07;36.40;28.20
51811;DHT22;52468;40.116;18.296;2023-09-07T09:55:35;35.50;28.80
51811;DHT22;52468;40.116;18.296;2023-09-07T09:58:03;34.50;30.30
51811;DHT22;52468;40.116;18.296;2023-09-07T10:00:32;34.50;30.50
51811;DHT22;52468;40.116;18.296;2023-09-07T10:03:12;34.50;30.70
51811;DHT22;52468;40.116;18.296;2023-09-07T10:05:44;35.00;30.20
51811;DHT22;52468;40.116;18.296;2023-09-07T10:08:15;34.90;30.00
51811;DHT22;52468;40.116;18.296;2023-09-07T10:10:47;34.50;30.70
51811;DHT22;52468;40.116;18.296;2023-09-07T10:13:15;34.50;30.80
51811;DHT22;52468;40.116;18.296;2023-09-07T10:15:44;34.50;30.90
51811;DHT22;52468;40.116;18.296;2023-09-07T10:18:14;34.80;30.80
51811;DHT22;52468;40.116;18.296;2023-09-07T10:23:19;34.90;30.10
51811;DHT22;52468;40.116;18.296;2023-09-07T10:25:51;34.80;30.60
51811;DHT22;52468;40.116;18.296;2023-09-07T10:28:23;34.80;30.60
51811;DHT22;52468;40.116;18.296;2023-09-07T10:33:40;35.20;30.40
51811;DHT22;52468;40.116;18.296;2023-09-07T10:36:08;35.40;30.10
51811;DHT22;52468;40.116;18.296;2023-09-07T10:38:47;35.50;30.00
51811;DHT22;52468;40.116;18.296;2023-09-07T10:41:15;35.50;29.80
51811;DHT22;52468;40.116;18.296;2023-09-07T10:44:01;35.50;29.90
51811;DHT22;52468;40.116;18.296;2023-09-07T10:46:29;35.70;29.80
51811;DHT22;52468;40.116;18.296;2023-09-07T10:48:56;35.70;29.80
51811;DHT22;52468;40.116;18.296;2023-09-07T10:51:24;36.00;29.00
51811;DHT22;52468;40.116;18.296;2023-09-07T10:53:52;35.80;29.20
51811;DHT22;52468;40.116;18.296;2023-09-07T10:56:24;35.80;29.70
51811;DHT22;52468;40.116;18.296;2023-09-07T10:58:54;36.20;29.10
51811;DHT22;52468;40.116;18.296;2023-09-07T11:01:22;36.70;28.40
51811;DHT22;52468;40.116;18.296;2023-09-07T11:03:50;37.00;27.80
51811;DHT22;52468;40.116;18.296;2023-09-07T11:06:20;36.80;27.80
51811;DHT22;52468;40.116;18.296;2023-09-07T11:08:49;36.90;27.60
51811;DHT22;52468;40.116;18.296;2023-09-07T11:11:17;37.20;27.40
51811;DHT22;52468;40.116;18.296;2023-09-07T11:13:45;37.50;27.20
51811;DHT22;52468;40.116;18.296;2023-09-07T11:16:13;37.90;26.60
51811;DHT22;52468;40.116;18.296;2023-09-07T11:18:41;37.90;26.60
51811;DHT22;52468;40.116;18.296;2023-09-07T11:21:10;37.50;26.90
51811;DHT22;52468;40.116;18.296;2023-09-07T11:23:38;37.00;27.60
51811;DHT22;52468;40.116;18.296;2023-09-07T11:26:07;37.00;27.70
51811;DHT22;52468;40.116;18.296;2023-09-07T11:28:36;37.20;27.30
51811;DHT22;52468;40.116;18.296;2023-09-07T11:31:05;37.10;27.40
51811;DHT22;52468;40.116;18.296;2023-09-07T11:33:33;36.20;28.30
51811;DHT22;52468;40.116;18.296;2023-09-07T11:36:03;36.30;28.30
51811;DHT22;52468;40.116;18.296;2023-09-07T11:38:36;36.70;27.90
51811;DHT22;52468;40.116;18.296;2023-09-07T11:41:05;36.80;27.80
51811;DHT22;52468;40.116;18.296;2023-09-07T11:43:33;36.90;27.60
51811;DHT22;52468;40.116;18.296;2023-09-07T11:46:01;37.10;27.30
51811;DHT22;52468;40.116;18.296;2023-09-07T11:48:31;37.20;27.10
51811;DHT22;52468;40.116;18.296;2023-09-07T11:51:00;37.30;27.00
51811;DHT22;52468;40.116;18.296;2023-09-07T11:53:29;36.60;27.40
51811;DHT22;52468;40.116;18.296;2023-09-07T11:55:57;36.00;28.20
51811;DHT22;52468;40.116;18.296;2023-09-07T11:58:25;35.70;28.80
51811;DHT22;52468;40.116;18.296;2023-09-07T12:00:55;36.00;28.50
51811;DHT22;52468;40.116;18.296;2023-09-07T12:03:23;36.20;28.30
51811;DHT22;52468;40.116;18.296;2023-09-07T12:05:51;36.40;28.00
51811;DHT22;52468;40.116;18.296;2023-09-07T12:08:19;36.10;28.20
51811;DHT22;52468;40.116;18.296;2023-09-07T12:10:47;36.20;28.10
51811;DHT22;52468;40.116;18.296;2023-09-07T12:13:15;36.40;28.10
51811;DHT22;52468;40.116;18.296;2023-09-07T12:15:43;36.40;28.00
51811;DHT22;52468;40.116;18.296;2023-09-07T12:18:11;36.30;28.00
51811;DHT22;52468;40.116;18.296;2023-09-07T12:20:38;36.50;27.80
51811;DHT22;52468;40.116;18.296;2023-09-07T12:23:06;36.90;27.50
51811;DHT22;52468;40.116;18.296;2023-09-07T12:25:35;37.30;27.00
51811;DHT22;52468;40.116;18.296;2023-09-07T12:28:03;37.40;26.80
51811;DHT22;52468;40.116;18.296;2023-09-07T12:30:31;37.50;26.50
51811;DHT22;52468;40.116;18.296;2023-09-07T12:32:59;37.50;26.70
51811;DHT22;52468;40.116;18.296;2023-09-07T12:35:26;37.20;26.60
51811;DHT22;52468;40.116;18.296;2023-09-07T12:37:54;36.50;27.30
51811;DHT22;52468;40.116;18.296;2023-09-07T12:40:22;35.80;28.20
51811;DHT22;52468;40.116;18.296;2023-09-07T12:42:50;35.80;28.40
51811;DHT22;52468;40.116;18.296;2023-09-07T12:45:18;36.10;28.00
51811;DHT22;52468;40.116;18.296;2023-09-07T12:47:46;36.60;27.60
51811;DHT22;52468;40.116;18.296;2023-09-07T12:50:14;37.30;26.90
51811;DHT22;52468;40.116;18.296;2023-09-07T12:52:42;37.80;26.50
51811;DHT22;52468;40.116;18.296;2023-09-07T12:55:10;38.30;26.00
51811;DHT22;52468;40.116;18.296;2023-09-07T12:57:37;38.70;25.30
51811;DHT22;52468;40.116;18.296;2023-09-07T13:00:06;38.50;25.00
51811;DHT22;52468;40.116;18.296;2023-09-07T13:02:34;37.80;25.70
51811;DHT22;52468;40.116;18.296;2023-09-07T13:05:02;37.50;26.10
51811;DHT22;52468;40.116;18.296;2023-09-07T13:07:33;38.00;25.90
51811;DHT22;52468;40.116;18.296;2023-09-07T13:10:02;38.60;25.20
51811;DHT22;52468;40.116;18.296;2023-09-07T13:12:32;39.10;24.70
51811;DHT22;52468;40.116;18.296;2023-09-07T13:15:00;39.30;24.40
51811;DHT22;52468;40.116;18.296;2023-09-07T13:17:28;39.00;24.50
51811;DHT22;52468;40.116;18.296;2023-09-07T13:19:56;38.80;24.70
51811;DHT22;52468;40.116;18.296;2023-09-07T13:22:24;38.60;24.60
51811;DHT22;52468;40.116;18.296;2023-09-07T13:24:52;38.30;25.10
51811;DHT22;52468;40.116;18.296;2023-09-07T13:27:20;37.80;25.60
51811;DHT22;52468;40.116;18.296;2023-09-07T13:29:48;37.10;26.30
51811;DHT22;52468;40.116;18.296;2023-09-07T13:32:16;36.80;26.90
51811;DHT22;52468;40.116;18.296;2023-09-07T13:34:44;36.50;27.50
51811;DHT22;52468;40.116;18.296;2023-09-07T13:37:12;36.50;27.40
51811;DHT22;52468;40.116;18.296;2023-09-07T13:39:40;36.60;27.40
51811;DHT22;52468;40.116;18.296;2023-09-07T13:42:08;37.10;27.00
51811;DHT22;52468;40.116;18.296;2023-09-07T13:44:36;37.50;26.60
51811;DHT22;52468;40.116;18.296;2023-09-07T13:47:07;37.90;26.20
51811;DHT22;52468;40.116;18.296;2023-09-07T13:49:38;38.00;25.70
51811;DHT22;52468;40.116;18.296;2023-09-07T13:52:06;38.50;25.20
51811;DHT22;52468;40.116;18.296;2023-09-07T13:54:34;38.80;24.70
51811;DHT22;52468;40.116;18.296;2023-09-07T13:57:02;39.50;24.20
51811;DHT22;52468;40.116;18.296;2023-09-07T13:59:30;40.50;23.30
51811;DHT22;52468;40.116;18.296;2023-09-07T14:02:00;40.60;23.10
51811;DHT22;52468;40.116;18.296;2023-09-07T14:04:28;39.80;24.10
51811;DHT22;52468;40.116;18.296;2023-09-07T14:06:58;39.20;24.50
51811;DHT22;52468;40.116;18.296;2023-09-07T14:09:26;37.70;25.90
51811;DHT22;52468;40.116;18.296;2023-09-07T14:11:54;36.80;27.00
51811;DHT22;52468;40.116;18.296;2023-09-07T14:14:22;36.00;28.00
51811;DHT22;52468;40.116;18.296;2023-09-07T14:16:50;36.20;28.10
51811;DHT22;52468;40.116;18.296;2023-09-07T14:19:22;37.20;26.90
51811;DHT22;52468;40.116;18.296;2023-09-07T14:21:51;38.90;25.10
51811;DHT22;52468;40.116;18.296;2023-09-07T14:24:19;40.10;23.90
51811;DHT22;52468;40.116;18.296;2023-09-07T14:26:47;40.80;23.00
51811;DHT22;52468;40.116;18.296;2023-09-07T14:29:15;41.50;22.20
51811;DHT22;52468;40.116;18.296;2023-09-07T14:31:43;42.10;21.60
51811;DHT22;52468;40.116;18.296;2023-09-07T14:34:11;42.70;21.10
51811;DHT22;52468;40.116;18.296;2023-09-07T14:36:39;43.00;21.00
51811;DHT22;52468;40.116;18.296;2023-09-07T14:39:08;43.00;21.30
51811;DHT22;52468;40.116;18.296;2023-09-07T14:41:36;43.00;21.60
51811;DHT22;52468;40.116;18.296;2023-09-07T14:44:04;42.60;21.70
51811;DHT22;52468;40.116;18.296;2023-09-07T14:46:32;43.20;21.50
51811;DHT22;52468;40.116;18.296;2023-09-07T14:49:00;42.00;22.00
51811;DHT22;52468;40.116;18.296;2023-09-07T14:51:28;41.60;22.50
51811;DHT22;52468;40.116;18.296;2023-09-07T14:53:56;41.60;22.60
51811;DHT22;52468;40.116;18.296;2023-09-07T14:56:25;41.90;22.50
51811;DHT22;52468;40.116;18.296;2023-09-07T14:58:54;42.00;22.20
51811;DHT22;52468;40.116;18.296;2023-09-07T15:01:21;42.30;21.80
51811;DHT22;52468;40.116;18.296;2023-09-07T15:03:49;42.40;21.60
51811;DHT22;52468;40.116;18.296;2023-09-07T15:06:18;42.00;21.80
51811;DHT22;52468;40.116;18.296;2023-09-07T15:08:46;40.90;22.70
51811;DHT22;52468;40.116;18.296;2023-09-07T15:11:15;40.40;23.20
51811;DHT22;52468;40.116;18.296;2023-09-07T15:13:43;40.60;23.10
51811;DHT22;52468;40.116;18.296;2023-09-07T15:16:13;41.40;22.40
51811;DHT22;52468;40.116;18.296;2023-09-07T15:18:41;41.30;22.40
51811;DHT22;52468;40.116;18.296;2023-09-07T15:21:10;41.30;22.20
51811;DHT22;52468;40.116;18.296;2023-09-07T15:23:38;41.10;22.50
51811;DHT22;52468;40.116;18.296;2023-09-07T15:26:06;41.60;22.00
51811;DHT22;52468;40.116;18.296;2023-09-07T15:28:34;42.10;21.50
51811;DHT22;52468;40.116;18.296;2023-09-07T15:31:04;42.10;21.50